Time;durP1;ratioP1;P1;durP2;ratioP2;P2;SDS_P1;SDS_P2;PMS_P1;PMS_P2;Temp;Humidity;BMP_temperature;BMP_pressure;BME280_temperature;BME280_humidity;BME280_pressure;Samples;Min_cycle;Max_cycle;Signal;HPM_P1;HPM_P2
2022/09/05 00:00:02;;;;;;;5.15;3.50;;;;;;;17.61;62.66;101086.97;6006785;23;97091;-80
2022/09/05 00:02:43;;;;;;;7.72;3.80;;;;;;;17.54;63.09;101083.78;6010448;23;97489;-80
2022/09/05 00:05:33;;;;;;;6.93;3.80;;;;;;;17.51;63.20;101086.59;6007065;23;100718;-80
2022/09/05 00:08:32;;;;;;;4.80;4.00;;;;;;;17.46;63.05;101085.09;5983586;23;96901;-80
2022/09/05 00:11:18;;;;;;;9.60;4.65;;;;;;;17.52;62.79;101084.78;5982585;23;97219;-80
2022/09/05 00:14:10;;;;;;;6.88;4.40;;;;;;;17.41;63.56;101090.63;6006327;23;101773;-80
2022/09/05 00:16:46;;;;;;;6.63;3.42;;;;;;;17.41;63.21;101085.31;5982928;23;101573;-80
2022/09/05 00:19:33;;;;;;;6.13;4.10;;;;;;;17.39;63.89;101090.72;6008526;23;96643;-79
2022/09/05 00:21:59;;;;;;;6.53;3.63;;;;;;;17.37;63.61;101094.38;6031005;23;97043;-79
2022/09/05 00:24:43;;;;;;;4.82;3.92;;;;;;;17.41;63.43;101095.94;6029861;23;99650;-79
2022/09/05 00:27:22;;;;;;;10.35;4.43;;;;;;;17.25;63.34;101065.78;6006572;23;101121;-80
2022/09/05 00:30:12;;;;;;;5.45;4.07;;;;;;;17.36;63.55;101093.50;5983236;23;97157;-80
2022/09/05 00:32:41;;;;;;;4.65;3.53;;;;;;;17.37;63.74;101094.38;5982852;23;97022;-80
2022/09/05 00:35:21;;;;;;;4.45;3.40;;;;;;;17.37;63.58;101099.69;6031126;23;100887;-80
2022/09/05 00:37:48;;;;;;;5.80;3.23;;;;;;;17.28;63.63;101074.47;6006152;23;100819;-80
2022/09/05 00:40:24;;;;;;;4.93;3.70;;;;;;;17.42;63.65;101092.34;6030427;23;96707;-80
2022/09/05 00:43:03;;;;;;;4.90;3.65;;;;;;;17.16;63.97;101053.84;6029647;23;97183;-80
2022/09/05 00:45:59;;;;;;;4.72;3.85;;;;;;;17.30;63.84;101082.34;5982701;23;101478;-82
2022/09/05 00:48:32;;;;;;;6.45;3.85;;;;;;;17.26;63.90;101089.59;6028970;23;101096;-80
2022/09/05 00:51:00;;;;;;;8.35;4.30;;;;;;;17.14;64.21;101076.97;6055368;23;96973;-81
2022/09/05 00:53:50;;;;;;;8.77;4.97;;;;;;;17.16;64.00;101075.06;6056824;23;96816;-80
2022/09/05 00:56:29;;;;;;;8.13;3.83;;;;;;;17.18;64.09;101075.84;6006016;23;101580;-80
2022/09/05 00:59:22;;;;;;;9.25;4.05;;;;;;;17.18;64.08;101086.47;6006501;23;101527;-80
2022/09/05 01:02:22;;;;;;;4.60;3.50;;;;;;;17.15;64.53;101095.44;6055211;23;96981;-80
2022/09/05 01:04:52;;;;;;;5.13;3.40;;;;;;;17.12;64.39;101092.06;6005811;23;97373;-80
2022/09/05 01:07:48;;;;;;;5.55;3.65;;;;;;;17.06;64.61;101087.94;6003623;23;100055;-80
2022/09/05 01:10:21;;;;;;;5.15;4.18;;;;;;;17.20;64.18;101081.94;5956449;23;101479;-80
2022/09/05 01:13:15;;;;;;;5.45;3.60;;;;;;;17.16;64.28;101083.91;6005801;23;97128;-80
2022/09/05 01:16:03;;;;;;;5.93;4.22;;;;;;;17.05;64.19;101072.09;6005402;23;96685;-80
2022/09/05 01:18:56;;;;;;;7.28;4.75;;;;;;;17.06;64.54;101090.59;6055726;23;98684;-81
2022/09/05 01:22:12;;;;;;;4.63;3.42;;;;;;;17.05;64.27;101088.88;6027964;23;100902;-80
2022/09/05 01:24:41;;;;;;;6.40;3.78;;;;;;;17.03;64.78;101092.53;5942358;23;97529;-80
2022/09/05 01:27:40;;;;;;;8.93;4.25;;;;;;;16.96;64.41;101090.19;5942927;23;96977;-80
2022/09/05 01:30:26;;;;;;;4.50;3.92;;;;;;;16.98;64.33;101090.09;5979760;23;101906;-80
2022/09/05 01:33:18;;;;;;;4.75;4.10;;;;;;;16.94;64.43;101096.50;6028866;23;101711;-80
2022/09/05 01:36:20;;;;;;;5.15;3.80;;;;;;;16.90;64.63;101095.78;6028863;23;97485;-80
2022/09/05 01:39:14;;;;;;;8.50;4.50;;;;;;;16.95;64.52;101098.19;6003359;23;97100;-80
2022/09/05 01:41:47;;;;;;;6.97;3.90;;;;;;;16.89;64.62;101096.69;6004203;23;101600;-80
2022/09/05 01:44:42;;;;;;;7.13;3.95;;;;;;;16.86;64.66;101102.16;6005720;23;99025;-80
2022/09/05 01:47:40;;;;;;;7.22;3.70;;;;;;;16.80;64.76;101104.25;6007568;23;97142;-80
2022/09/05 01:50:31;;;;;;;5.70;3.88;;;;;;;16.85;64.50;101105.75;5983099;23;96989;-81
2022/09/05 01:53:03;;;;;;;;;;;;;;;16.80;64.60;101109.53;6008324;23;101467;-82
2022/09/05 01:55:40;;;;;;;8.48;4.70;;;;;;;16.85;64.12;101115.50;6031631;23;98348;-80
2022/09/05 01:58:37;;;;;;;5.05;4.30;;;;;;;16.81;64.40;101105.94;6006575;23;96978;-80
2022/09/05 02:01:30;;;;;;;5.63;4.30;;;;;;;16.82;64.43;101113.84;6030466;23;97065;-80
2022/09/05 02:04:04;;;;;;;9.10;4.28;;;;;;;16.77;64.32;101099.09;6031025;23;98307;-80
2022/09/05 02:06:34;;;;;;;6.43;3.97;;;;;;;16.78;64.32;101106.09;6006598;23;101196;-82
2022/09/05 02:09:18;;;;;;;5.63;4.00;;;;;;;16.69;64.27;101108.22;6007987;23;97505;-80
2022/09/05 02:11:57;;;;;;;7.07;4.35;;;;;;;16.73;63.87;101112.47;6005729;23;96846;-80
2022/09/05 02:14:38;;;;;;;9.18;4.10;;;;;;;16.78;64.19;101109.59;6008560;23;101401;-80
2022/09/05 02:17:19;;;;;;;6.80;5.20;;;;;;;16.71;64.01;101109.00;6032959;23;98015;-80
2022/09/05 02:19:49;;;;;;;8.00;4.47;;;;;;;16.70;64.09;101112.59;6008227;23;96557;-80
2022/09/05 02:22:39;;;;;;;8.35;3.40;;;;;;;16.61;64.32;101106.84;5985711;23;96887;-80
2022/09/05 02:25:08;;;;;;;7.63;4.53;;;;;;;16.49;63.75;101085.31;6032819;23;97691;-80
2022/09/05 02:27:38;;;;;;;7.95;4.40;;;;;;;16.53;64.14;101100.13;6008198;23;101536;-81
2022/09/05 02:30:13;;;;;;;5.57;4.10;;;;;;;16.54;64.51;101101.00;6004999;23;97217;-79
2022/09/05 02:32:47;;;;;;;5.63;3.63;;;;;;;16.56;64.52;101106.22;6007176;23;97490;-80
2022/09/05 02:35:26;;;;;;;6.32;4.35;;;;;;;16.53;64.12;101112.53;6032390;23;98028;-81
2022/09/05 02:37:57;;;;;;;7.45;4.15;;;;;;;16.60;64.29;101118.41;6058279;23;98414;-80
2022/09/05 02:40:31;;;;;;;9.35;4.65;;;;;;;16.55;64.42;101117.75;6032833;23;97250;-80
2022/09/05 02:43:02;;;;;;;5.82;4.10;;;;;;;16.49;64.58;101113.59;5984632;23;97117;-80
2022/09/05 02:45:54;;;;;;;;;;;;;;;16.45;64.46;101114.66;6033299;23;101088;-80
2022/09/05 02:48:22;;;;;;;5.47;4.25;;;;;;;16.45;64.33;101115.53;6021207;23;98175;-80
2022/09/05 02:50:55;;;;;;;10.27;4.47;;;;;;;16.46;64.07;101104.00;6031065;23;97110;-80
2022/09/05 02:53:21;;;;;;;5.65;4.20;;;;;;;16.47;64.23;101108.38;5984484;23;96781;-80
2022/09/05 02:56:08;;;;;;;7.53;4.50;;;;;;;16.53;64.14;101116.03;6007371;23;97890;-80
2022/09/05 02:59:11;;;;;;;6.10;4.13;;;;;;;16.48;64.40;101119.81;6031756;23;99840;-81
2022/09/05 03:02:10;;;;;;;5.68;4.15;;;;;;;16.42;64.13;101114.81;6008172;23;97037;-80
2022/09/05 03:04:41;;;;;;;8.40;4.55;;;;;;;16.39;64.11;101110.50;6054686;23;96932;-81
2022/09/05 03:07:22;;;;;;;5.28;4.03;;;;;;;16.38;63.99;101111.44;6007669;23;101647;-80
2022/09/05 03:10:07;;;;;;;9.40;4.97;;;;;;;16.40;63.90;101108.72;6031890;23;101030;-80
2022/09/05 03:13:09;;;;;;;6.28;4.50;;;;;;;16.30;64.41;101108.28;6008894;23;97136;-81
2022/09/05 03:15:54;;;;;;;8.30;4.32;;;;;;;16.19;64.94;101108.75;6032220;23;97072;-81
2022/09/05 03:18:56;;;;;;;8.18;4.80;;;;;;;16.25;64.66;101111.13;6008470;23;99554;-80
2022/09/05 03:21:28;;;;;;;6.65;4.45;;;;;;;16.15;64.44;101108.97;6031063;23;99652;-80
2022/09/05 03:24:18;;;;;;;6.70;4.82;;;;;;;16.19;64.91;101121.16;6030510;23;97148;-80
2022/09/05 03:27:19;;;;;;;6.85;4.70;;;;;;;16.17;64.76;101115.03;6007677;23;96902;-80
2022/09/05 03:30:23;;;;;;;7.70;4.53;;;;;;;16.06;65.25;101128.78;5991910;23;101087;-80
2022/09/05 03:33:07;;;;;;;7.82;4.93;;;;;;;16.10;65.10;101134.81;5960213;23;101835;-80
2022/09/05 03:36:01;;;;;;;9.40;5.03;;;;;;;16.01;65.26;101139.56;6036005;23;97212;-82
2022/09/05 03:38:42;;;;;;;5.93;4.57;;;;;;;15.92;65.38;101125.88;6035337;23;97298;-81
2022/09/05 03:41:35;;;;;;;5.93;5.07;;;;;;;15.88;65.75;101129.56;6060652;23;101450;-81
2022/09/05 03:44:35;;;;;;;7.95;4.75;;;;;;;15.93;65.44;101141.69;6037629;23;101528;-81
2022/09/05 03:47:13;;;;;;;9.98;5.13;;;;;;;15.94;65.33;101147.84;6037474;23;97039;-81
2022/09/05 03:49:44;;;;;;;7.60;4.68;;;;;;;16.00;65.72;101142.28;6061294;23;96680;-81
2022/09/05 03:52:10;;;;;;;;;;;;;;;15.98;65.55;101144.16;6061787;23;98645;-80
2022/09/05 03:55:00;;;;;;;8.00;4.60;;;;;;;15.99;65.46;101148.50;6033541;23;101075;-81
2022/09/05 03:57:46;;;;;;;7.90;5.03;;;;;;;16.04;65.07;101149.16;6013036;23;97287;-79
2022/09/05 04:00:20;;;;;;;9.55;5.22;;;;;;;15.92;65.43;101147.06;6061559;23;97070;-80
2022/09/05 04:03:04;;;;;;;8.48;5.03;;;;;;;15.94;65.28;101161.97;6061058;23;97685;-80
2022/09/05 04:05:34;;;;;;;7.93;4.95;;;;;;;15.86;65.66;101131.44;6060358;23;99553;-81
2022/09/05 04:08:13;;;;;;;7.90;5.30;;;;;;;16.09;65.08;101152.47;6013166;23;96927;-81
2022/09/05 04:10:55;;;;;;;5.97;4.45;;;;;;;15.89;65.32;101141.91;6034473;23;97271;-81
2022/09/05 04:13:37;;;;;;;6.13;4.43;;;;;;;15.91;65.91;101163.84;6035645;23;97977;-80
2022/09/05 04:16:08;;;;;;;8.32;4.65;;;;;;;15.99;65.06;101154.66;6061111;23;98080;-81
2022/09/05 04:18:41;;;;;;;10.07;4.57;;;;;;;15.84;65.69;101153.53;6036964;23;97621;-80
2022/09/05 04:21:28;;;;;;;8.25;4.65;;;;;;;15.99;65.34;101167.03;6037020;23;97174;-81
2022/09/05 04:24:15;;;;;;;8.18;4.93;;;;;;;15.94;65.33;101169.91;6036609;23;97596;-80
2022/09/05 04:27:17;;;;;;;6.57;4.63;;;;;;;15.85;65.58;101172.91;6060557;23;101581;-80
2022/09/05 04:30:33;;;;;;;10.00;4.85;;;;;;;15.67;65.86;101160.44;6057876;23;97248;-81
2022/09/05 04:33:10;;;;;;;6.60;4.80;;;;;;;15.90;65.53;101170.94;5920079;23;97224;-80
2022/09/05 04:35:39;;;;;;;8.68;4.53;;;;;;;15.82;65.61;101173.94;5921004;23;101687;-82
2022/09/05 04:38:17;;;;;;;5.55;4.50;;;;;;;15.83;65.80;101183.59;5922243;23;101089;-80
2022/09/05 04:40:57;;;;;;;8.57;5.10;;;;;;;15.81;65.87;101182.78;5921045;23;97175;-80
2022/09/05 04:43:29;;;;;;;9.50;4.87;;;;;;;15.84;65.67;101184.44;5922146;23;97138;-80
2022/09/05 04:46:03;;;;;;;7.28;4.40;;;;;;;15.88;65.92;101193.09;5917290;23;100795;-80
2022/09/05 04:48:42;;;;;;;7.63;5.60;;;;;;;15.81;65.84;101184.56;5944423;23;97915;-81
2022/09/05 04:51:41;;;;;;;8.68;4.85;;;;;;;15.87;65.79;101188.75;5944695;23;97406;-81
2022/09/05 04:54:21;;;;;;;9.43;4.88;;;;;;;15.90;65.97;101185.97;5944970;23;97353;-81
2022/09/05 04:56:50;;;;;;;16.27;5.85;;;;;;;16.02;65.33;101186.28;5943438;23;97932;-80
2022/09/05 04:59:30;;;;;;;7.07;4.82;;;;;;;16.02;65.29;101188.09;5920686;23;101467;-81
2022/09/05 05:02:26;;;;;;;9.40;5.00;;;;;;;15.92;65.35;101181.47;5920524;23;97315;-81
2022/09/05 05:04:59;;;;;;;7.82;4.25;;;;;;;15.92;65.45;101184.97;5966814;23;97292;-83
2022/09/05 05:07:30;;;;;;;6.60;5.05;;;;;;;16.13;64.74;101199.09;6012872;23;101521;-81
2022/09/05 05:09:59;;;;;;;10.90;5.78;;;;;;;16.04;65.03;101188.88;6059582;23;98364;-81
2022/09/05 05:12:46;;;;;;;8.85;4.82;;;;;;;16.05;65.26;101195.91;6035057;23;96799;-80
2022/09/05 05:15:16;;;;;;;7.65;4.78;;;;;;;16.14;64.86;101200.78;6036421;23;97419;-81
2022/09/05 05:17:51;;;;;;;9.68;4.82;;;;;;;16.20;64.72;101197.91;6034091;23;101275;-81
2022/09/05 05:20:28;;;;;;;11.82;5.30;;;;;;;16.30;64.27;101191.25;6084831;23;97607;-81
2022/09/05 05:23:13;;;;;;;9.88;4.82;;;;;;;16.35;64.36;101191.06;6034833;23;97077;-80
2022/09/05 05:25:45;;;;;;;8.80;5.10;;;;;;;16.40;64.13;101193.50;6035662;23;96934;-82
2022/09/05 05:28:19;;;;;;;;;;;;;;;16.49;63.69;101187.78;6087866;23;98025;-80
2022/09/05 05:30:45;;;;;;;10.45;4.93;;;;;;;16.60;63.49;101190.81;6037544;23;100933;-81
2022/09/05 05:33:26;;;;;;;6.95;5.00;;;;;;;16.79;62.97;101188.22;6061805;23;97073;-82
2022/09/05 05:35:52;;;;;;;7.47;4.97;;;;;;;16.75;62.64;101166.28;6003610;23;97036;-80
2022/09/05 05:38:27;;;;;;;9.45;4.90;;;;;;;17.08;62.38;101194.81;6027637;23;97419;-82
2022/09/05 05:41:00;;;;;;;7.32;4.53;;;;;;;17.01;62.36;101203.97;6005819;23;101009;-83
2022/09/05 05:43:37;;;;;;;7.15;5.07;;;;;;;17.17;61.94;101207.66;6007153;23;96637;-83
2022/09/05 05:46:03;;;;;;;11.02;5.07;;;;;;;17.29;61.46;101195.59;6007878;23;97153;-80
2022/09/05 05:48:38;;;;;;;7.15;4.88;;;;;;;17.37;61.63;101206.69;6008299;23;100852;-82
2022/09/05 05:51:12;;;;;;;7.90;5.07;;;;;;;17.33;61.24;101212.22;6009080;23;97275;-81
2022/09/05 05:53:58;;;;;;;10.18;5.03;;;;;;;17.26;61.33;101214.31;6032606;23;97222;-81
2022/09/05 05:56:38;;;;;;;8.93;5.05;;;;;;;17.19;61.69;101205.78;5983892;23;96644;-81
2022/09/05 05:59:45;;;;;;;10.38;5.05;;;;;;;17.37;61.45;101221.75;6032257;23;98182;-81
2022/09/05 06:02:22;;;;;;;10.38;5.53;;;;;;;17.45;61.84;101222.22;6007105;23;97897;-84
2022/09/05 06:05:11;;;;;;;6.07;4.63;;;;;;;17.60;60.71;101220.66;6007327;23;98397;-84
2022/09/05 06:08:00;;;;;;;8.13;4.82;;;;;;;17.45;60.99;101221.38;5984796;23;97215;-82
2022/09/05 06:10:50;;;;;;;7.25;4.70;;;;;;;17.39;61.33;101230.50;6029757;23;101336;-80
2022/09/05 06:13:34;;;;;;;9.77;5.10;;;;;;;17.12;62.25;101233.53;6056485;23;97875;-81
2022/09/05 06:16:03;;;;;;;10.68;4.88;;;;;;;17.10;62.46;101234.53;6009063;23;97056;-81
2022/09/05 06:18:59;;;;;;;8.43;5.05;;;;;;;17.08;62.68;101237.25;6033634;23;96921;-82
2022/09/05 06:21:50;;;;;;;13.95;6.13;;;;;;;17.12;62.03;101232.66;6008769;23;102783;-82
2022/09/05 06:24:47;;;;;;;14.25;5.07;;;;;;;17.16;62.48;101234.22;6009578;23;101522;-81
2022/09/05 06:27:25;;;;;;;13.05;5.18;;;;;;;17.32;62.08;101234.38;6029253;23;97430;-82
2022/09/05 06:30:12;;;;;;;8.07;5.03;;;;;;;17.38;61.83;101236.75;6029470;23;97117;-84
2022/09/05 06:32:56;;;;;;;5.80;5.20;;;;;;;17.36;61.65;101225.31;5982066;23;101264;-85
2022/09/05 06:35:50;;;;;;;11.43;5.22;;;;;;;17.58;61.29;101239.28;6058704;23;98022;-83
2022/09/05 06:38:34;;;;;;;8.43;5.85;;;;;;;17.69;61.34;101232.63;6036144;23;96700;-81
2022/09/05 06:41:18;;;;;;;7.93;5.35;;;;;;;17.77;61.07;101231.28;6060418;23;97796;-81
2022/09/05 06:44:11;;;;;;;8.40;5.00;;;;;;;17.98;60.85;101236.50;6009779;23;101314;-82
2022/09/05 06:46:43;;;;;;;8.93;5.20;;;;;;;17.97;60.40;101209.06;6012444;23;101336;-83
2022/09/05 06:49:28;;;;;;;10.73;5.53;;;;;;;18.15;59.59;101231.19;6036075;23;96696;-83
2022/09/05 06:52:21;;;;;;;13.07;5.50;;;;;;;18.24;59.76;101237.84;6033838;23;96761;-83
2022/09/05 06:55:24;;;;;;;8.98;5.38;;;;;;;18.40;59.47;101240.53;6035400;23;101629;-83
2022/09/05 06:58:26;;;;;;;8.43;4.97;;;;;;;18.47;59.21;101242.81;6060089;23;100973;-81
2022/09/05 07:00:57;;;;;;;6.85;4.60;;;;;;;18.70;59.42;101243.38;6059184;23;98072;-82
2022/09/05 07:03:58;;;;;;;5.40;4.10;;;;;;;18.85;58.31;101257.66;6060127;23;97341;-81
2022/09/05 07:06:41;;;;;;;8.50;5.43;;;;;;;18.77;58.26;101253.63;6035875;23;102761;-81
2022/09/05 07:09:25;;;;;;;11.32;4.70;;;;;;;18.84;58.35;101248.84;6060364;23;101284;-81
2022/09/05 07:12:21;;;;;;;6.82;4.60;;;;;;;19.16;57.28;101248.88;6085126;23;97740;-82
2022/09/05 07:15:08;;;;;;;10.35;4.65;;;;;;;19.98;55.38;101239.81;6034586;23;96831;-81
2022/09/05 07:17:56;;;;;;;8.23;4.40;;;;;;;19.78;55.88;101243.63;6085898;23;97588;-84
2022/09/05 07:20:34;;;;;;;14.07;5.10;;;;;;;19.80;54.59;101242.59;6062356;23;98035;-80
2022/09/05 07:23:06;;;;;;;9.85;4.88;;;;;;;20.01;54.93;101253.84;6037808;23;96753;-82
2022/09/05 07:25:32;;;;;;;6.00;3.95;;;;;;;20.10;54.86;101231.09;6062051;23;96837;-79
2022/09/05 07:28:00;;;;;;;10.07;4.50;;;;;;;20.24;54.77;101241.78;6035372;23;101316;-82
2022/09/05 07:30:26;;;;;;;7.55;4.18;;;;;;;20.33;54.35;101237.69;6036776;23;101130;-80
2022/09/05 07:32:54;;;;;;;9.57;4.47;;;;;;;20.55;53.83;101248.81;6035821;23;96758;-80
2022/09/05 07:35:31;;;;;;;9.48;3.97;;;;;;;25.49;43.10;101240.34;6037181;23;97100;-81
2022/09/05 07:38:00;;;;;;;4.75;3.33;;;;;;;27.11;39.75;101232.75;6012616;23;101455;-82
2022/09/05 07:40:27;;;;;;;7.25;3.80;;;;;;;24.51;42.70;101245.50;6061138;23;100970;-76
2022/09/05 07:43:07;;;;;;;12.35;3.92;;;;;;;24.20;43.83;101236.25;6035810;23;97340;-84
2022/09/05 07:45:35;;;;;;;7.72;3.75;;;;;;;24.18;44.66;101257.00;6038127;23;96746;-85
2022/09/05 07:48:11;;;;;;;8.65;3.45;;;;;;;24.42;43.45;101245.34;6036973;23;102127;-84
2022/09/05 07:50:51;;;;;;;7.13;3.42;;;;;;;24.48;43.66;101248.44;6038607;23;97349;-83
2022/09/05 07:53:17;;;;;;;5.60;3.28;;;;;;;24.67;43.05;101246.97;6012528;23;97193;-81
2022/09/05 07:55:48;;;;;;;12.40;4.53;;;;;;;24.87;42.68;101251.66;6037183;23;98135;-82
2022/09/05 07:58:16;;;;;;;7.05;3.50;;;;;;;24.35;43.98;101232.41;6036110;23;101025;-82
2022/09/05 08:00:42;;;;;;;7.32;3.72;;;;;;;24.72;42.81;101240.25;6035613;23;100703;-82
2022/09/05 08:03:13;;;;;;;5.18;3.55;;;;;;;23.77;44.02;101238.69;6011688;23;96642;-82
2022/09/05 08:05:48;;;;;;;8.10;3.63;;;;;;;24.02;43.99;101235.00;6012929;23;96801;-82
2022/09/05 08:08:17;;;;;;;5.25;3.80;;;;;;;25.34;41.74;101244.28;6035851;23;101263;-83
2022/09/05 08:10:46;;;;;;;5.57;3.38;;;;;;;25.83;40.89;101224.13;6037718;23;97283;-84
2022/09/05 08:13:15;;;;;;;7.47;3.47;;;;;;;27.64;37.69;101237.88;6060402;23;96733;-83
2022/09/05 08:15:50;;;;;;;7.80;3.20;;;;;;;28.47;36.59;101234.69;6012831;23;96796;-83
2022/09/05 08:18:27;;;;;;;6.10;3.60;;;;;;;28.28;36.67;101238.28;6035339;23;97386;-83
2022/09/05 08:21:20;;;;;;;5.60;3.15;;;;;;;28.84;35.60;101237.41;6061216;23;99178;-84
2022/09/05 08:23:55;;;;;;;5.60;2.58;;;;;;;28.81;35.62;101224.22;6020692;23;96723;-83
2022/09/05 08:26:53;;;;;;;8.30;2.97;;;;;;;29.10;35.46;101233.03;6061086;23;96832;-86
2022/09/05 08:29:29;;;;;;;6.43;2.90;;;;;;;30.22;33.63;101229.94;6031748;23;98132;-85
2022/09/05 08:32:07;;;;;;;3.88;2.88;;;;;;;29.83;34.06;101226.72;6036077;23;98353;-84
2022/09/05 08:34:32;;;;;;;6.03;3.10;;;;;;;29.75;34.23;101224.78;6061610;23;97177;-85
2022/09/05 08:36:59;;;;;;;6.25;2.92;;;;;;;28.58;36.13;101227.28;6059178;23;97457;-83
2022/09/05 08:39:25;;;;;;;8.20;3.10;;;;;;;27.81;37.71;101227.38;6037099;23;98083;-85
2022/09/05 08:42:22;;;;;;;5.40;3.33;;;;;;;27.83;37.25;101226.25;6059836;23;97632;-86
2022/09/05 08:45:07;;;;;;;6.63;3.08;;;;;;;28.99;35.64;101218.84;6060966;23;97334;-85
2022/09/05 08:47:46;;;;;;;5.38;2.88;;;;;;;29.55;34.48;101215.09;6012453;23;96931;-84
2022/09/05 08:50:28;;;;;;;5.25;2.72;;;;;;;30.01;33.82;101199.63;6060926;23;97352;-85
2022/09/05 08:53:16;;;;;;;4.32;2.80;;;;;;;29.78;33.92;101229.03;6034397;23;99944;-84
2022/09/05 08:55:56;;;;;;;5.07;2.90;;;;;;;30.15;33.81;101200.91;6035346;23;96699;-82
2022/09/05 08:58:33;;;;;;;3.97;3.30;;;;;;;30.77;32.92;101200.78;6034656;23;97568;-83
2022/09/05 09:01:17;;;;;;;3.95;2.72;;;;;;;30.30;32.24;101198.50;6086610;23;97962;-84
2022/09/05 09:03:46;;;;;;;5.70;3.33;;;;;;;30.25;33.47;101196.28;6071590;23;100544;-89
2022/09/05 09:06:34;;;;;;;5.18;3.30;;;;;;;30.63;33.35;101192.28;6047175;23;96531;-88
2022/09/05 09:09:07;;;;;;;8.05;3.25;;;;;;;29.83;32.65;101196.97;6039223;23;96871;-92
2022/09/05 09:11:53;;;;;;;8.02;3.60;;;;;;;29.29;33.29;101175.31;6065787;23;97310;-88
2022/09/05 09:14:18;;;;;;;6.53;2.67;;;;;;;28.64;34.38;101182.63;6037008;23;102101;-87
2022/09/05 09:17:21;;;;;;;5.15;3.08;;;;;;;29.42;33.88;101179.50;6037532;23;97293;-85
2022/09/05 09:20:08;;;;;;;7.75;2.90;;;;;;;29.94;33.02;101182.34;6036618;23;96944;-86
2022/09/05 09:22:52;;;;;;;7.60;2.55;;;;;;;30.10;32.60;101181.59;6083821;23;99047;-86
2022/09/05 09:25:35;;;;;;;5.13;2.67;;;;;;;30.39;32.68;101171.31;6036778;23;100535;-85
2022/09/05 09:28:39;;;;;;;3.10;2.50;;;;;;;30.76;30.90;101172.00;6059830;23;96656;-82
2022/09/05 09:31:13;;;;;;;4.55;2.47;;;;;;;31.22;30.29;101159.78;6061113;23;97248;-82
2022/09/05 09:33:45;;;;;;;7.18;2.88;;;;;;;31.27;30.87;101149.31;6035593;23;101541;-82
2022/09/05 09:36:36;;;;;;;7.97;2.72;;;;;;;31.53;30.69;101165.47;6012464;23;97828;-81
2022/09/05 09:39:14;;;;;;;4.07;2.35;;;;;;;31.63;30.87;101164.44;6040710;23;97884;-81
2022/09/05 09:41:51;;;;;;;4.50;2.33;;;;;;;31.66;29.46;101159.53;6060550;23;97287;-82
2022/09/05 09:45:00;;;;;;;4.28;2.58;;;;;;;31.65;29.49;101160.56;6036624;23;101442;-81
2022/09/05 09:48:00;;;;;;;6.05;2.60;;;;;;;31.90;30.18;101155.97;6060861;23;97982;-81
2022/09/05 09:51:07;;;;;;;7.03;2.70;;;;;;;31.82;29.25;101158.66;6030312;23;97908;-81
2022/09/05 09:53:51;;;;;;;5.07;2.13;;;;;;;32.12;28.10;101159.00;6036074;23;97241;-81
2022/09/05 09:56:23;;;;;;;7.55;2.03;;;;;;;31.49;28.49;101165.97;6036386;23;97516;-82
2022/09/05 09:58:58;;;;;;;3.60;2.40;;;;;;;31.34;29.28;101163.03;6060255;23;97349;-83
2022/09/05 10:01:37;;;;;;;9.27;2.40;;;;;;;30.69;30.60;101152.84;6086728;23;96534;-82
2022/09/05 10:04:36;;;;;;;5.78;2.17;;;;;;;30.42;30.94;101160.16;6059981;23;97376;-82
2022/09/05 10:07:36;;;;;;;4.50;2.10;;;;;;;30.03;31.49;101159.72;6058813;23;97717;-83
2022/09/05 10:10:30;;;;;;;4.30;1.92;;;;;;;29.40;31.78;101167.97;6059679;23;97906;-83
2022/09/05 10:13:32;;;;;;;3.83;2.20;;;;;;;28.64;32.51;101161.88;6010727;23;96654;-83
2022/09/05 10:16:07;;;;;;;5.72;2.38;;;;;;;27.83;34.13;101163.34;6064794;23;97200;-90
2022/09/05 10:18:35;;;;;;;7.18;3.08;;;;;;;26.75;35.51;101154.25;6038461;23;101853;-94
2022/09/05 10:21:25;;;;;;;3.47;2.35;;;;;;;26.15;36.75;101159.50;6067947;23;101357;-92
2022/09/05 10:24:26;;;;;;;2.70;2.17;;;;;;;26.23;36.92;101153.44;6066731;23;97010;-89
2022/09/05 10:27:13;;;;;;;4.32;2.58;;;;;;;26.16;36.79;101155.81;6065179;23;96774;-89
2022/09/05 10:30:01;;;;;;;6.60;2.42;;;;;;;26.01;37.37;101150.94;6091143;23;97392;-89
2022/09/05 10:32:51;;;;;;;3.95;2.15;;;;;;;25.65;36.29;101148.50;6040376;23;101300;-90
2022/09/05 10:35:16;;;;;;;5.13;2.33;;;;;;;25.57;37.50;101151.00;6064371;23;96793;-91
2022/09/05 10:37:44;;;;;;;3.20;2.08;;;;;;;24.90;37.89;101146.69;6066370;23;97446;-94
2022/09/05 10:40:13;;;;;;;4.25;2.08;;;;;;;25.10;39.03;101149.53;6064567;23;98433;-87
2022/09/05 10:42:46;;;;;;;4.18;2.40;;;;;;;24.80;38.49;101151.06;6035922;23;101662;-91
2022/09/05 10:45:15;;;;;;;5.18;2.10;;;;;;;24.90;39.67;101143.09;6015731;23;96643;-91
2022/09/05 10:47:47;;;;;;;3.25;2.22;;;;;;;24.78;38.71;101145.84;6039925;23;96839;-91
2022/09/05 10:50:31;;;;;;;3.78;2.25;;;;;;;24.79;38.84;101142.16;6063281;23;98232;-90
2022/09/05 10:53:09;;;;;;;2.85;2.20;;;;;;;24.88;38.18;101135.19;6038643;23;99931;-91
2022/09/05 10:56:08;;;;;;;4.70;2.33;;;;;;;24.57;39.25;101134.97;6063656;23;96695;-90
2022/09/05 10:59:00;;;;;;;11.57;2.40;;;;;;;24.55;38.85;101134.28;6037505;23;97068;-89
2022/09/05 11:01:40;;;;;;;4.57;2.35;;;;;;;24.60;39.47;101132.03;6061054;23;101339;-84
2022/09/05 11:04:37;;;;;;;4.63;2.53;;;;;;;24.01;39.49;101126.03;6037034;23;100767;-87
2022/09/05 11:07:42;;;;;;;4.90;2.55;;;;;;;23.87;40.60;101122.59;6037419;23;96889;-91
2022/09/05 11:10:19;;;;;;;2.67;2.28;;;;;;;23.93;39.79;101121.25;6063232;23;97156;-88
2022/09/05 11:13:18;;;;;;;5.82;2.45;;;;;;;23.70;40.69;101128.38;6089834;23;98472;-91
2022/09/05 11:15:57;;;;;;;5.00;2.50;;;;;;;23.74;40.40;101124.53;6060206;23;98280;-90
2022/09/05 11:19:02;;;;;;;3.83;2.53;;;;;;;23.86;39.40;101123.56;6038818;23;97195;-87
2022/09/05 11:21:36;;;;;;;3.60;2.63;;;;;;;23.98;39.66;101131.63;6085808;23;97197;-86
2022/09/05 11:24:42;;;;;;;3.42;2.00;;;;;;;23.67;39.97;101132.13;6088255;23;97691;-90
2022/09/05 11:27:47;;;;;;;4.78;2.60;;;;;;;23.52;40.63;101119.06;6064136;23;101017;-89
2022/09/05 11:30:16;;;;;;;8.10;2.85;;;;;;;23.58;41.63;101095.31;5918793;23;97419;-89
2022/09/05 11:33:17;;;;;;;3.17;2.40;;;;;;;23.45;41.40;101094.56;5896240;23;96759;-88
2022/09/05 11:35:45;;;;;;;3.45;2.30;;;;;;;23.48;41.58;101118.44;5920122;23;98037;-84
2022/09/05 11:38:22;;;;;;;3.70;2.20;;;;;;;23.55;40.32;101103.59;5915836;23;101172;-87
2022/09/05 11:41:15;;;;;;;2.90;2.60;;;;;;;23.62;41.62;101110.19;5918262;23;96711;-88
2022/09/05 11:44:11;;;;;;;5.70;2.92;;;;;;;23.54;41.41;101112.59;5895014;23;97099;-85
2022/09/05 11:47:14;;;;;;;3.80;2.50;;;;;;;23.66;41.09;101108.97;5921606;23;98556;-88
2022/09/05 11:50:11;;;;;;;3.75;2.03;;;;;;;23.51;40.71;101112.84;5897110;23;101459;-90
2022/09/05 11:53:05;;;;;;;3.38;2.58;;;;;;;23.54;40.68;101109.06;5933049;23;97001;-76
2022/09/05 11:56:02;;;;;;;3.15;2.30;;;;;;;23.44;40.53;101107.06;5913536;23;97118;-80
2022/09/05 11:59:03;;;;;;;3.83;2.28;;;;;;;23.54;40.45;101114.44;5913895;23;100108;-83
2022/09/05 12:01:32;;;;;;;6.07;2.53;;;;;;;23.60;40.55;101112.13;5987766;23;101342;-84
2022/09/05 12:04:15;;;;;;;4.00;2.20;;;;;;;23.65;41.04;101114.44;6013257;23;97366;-84
2022/09/05 12:06:56;;;;;;;5.75;2.60;;;;;;;23.66;40.74;101114.34;6037843;23;96583;-82
2022/09/05 12:09:44;;;;;;;6.63;3.85;;;;;;;23.51;40.99;101110.16;6037154;23;101229;-83
2022/09/05 12:12:58;;;;;;;5.38;2.47;;;;;;;23.56;40.63;101107.13;6061060;23;97893;-92
2022/09/05 12:15:32;;;;;;;4.35;2.20;;;;;;;23.82;40.70;101105.16;6030834;23;96839;-83
2022/09/05 12:18:13;;;;;;;3.45;2.55;;;;;;;23.91;40.20;101102.63;6014406;23;96745;-86
2022/09/05 12:20:50;;;;;;;1.90;1.70;;;;;;;23.93;40.32;101108.69;6037538;23;101660;-82
2022/09/05 12:23:30;;;;;;;3.28;1.95;;;;;;;23.85;40.46;101108.47;6037132;23;99906;-86
2022/09/05 12:26:19;;;;;;;3.35;2.20;;;;;;;23.67;40.36;101093.75;6088395;23;96658;-86
2022/09/05 12:28:45;;;;;;;2.55;2.10;;;;;;;23.70;40.53;101094.41;6038280;23;97336;-85
2022/09/05 12:31:16;;;;;;;3.20;2.00;;;;;;;23.72;40.75;101099.66;6088939;23;98487;-86
2022/09/05 12:33:45;;;;;;;3.85;2.55;;;;;;;23.83;40.28;101082.75;6062355;23;98672;-86